< < Back
Terminal Aerodrome Forecast


Current Version              Previous Versions:   1  2  3  4  5  6  7  8  9  

Terminal Aerodrome Forecast

080
FTUS42 KFFC 030520
TAFPDK
TAF
KPDK 030520Z 0306/0406 00000KT P6SM FEW080 BKN200
     FM031500 32003KT P6SM SCT045 BKN180
     FM031800 31005KT P6SM BKN050 PROB30 0319/0323 -SHRA
     FM040000 00000KT P6SM SCT060 SCT150=



Latest METAR

098
SAUS70 KWBC 031000 RRI
MTRPDK
METAR KPDK 030953Z 00000KT 9SM CLR 23/22 A3000 RMK AO2 SLP138
T02330222


USA.gov is the U.S. government's official web portal to all federal, state and local government web resources and services.